Alexandria, MN

10:26 PM CDT on September 01, 2015 (GMT -0500)
South Lake Victoria | | Change Station
CLOSE
Current Station
Personal Weather Station
Location: Alexandria, MN
Elevation: 1388 ft
Nearby Weather Stations

Elev 1388 ft 45.86 °N, 95.35 °W | Updated 3 seconds ago

Clear
Clear
72.5 °F
Feels Like 72.5 °F
N
0.9
Wind Variable Wind from SW
Gusts 2.5 mph

Today
High -- | Low -- °F
--% Chance of Precip.
Yesterday
High -- | Low -- °F
Precip. -- in
6:42 AM 8:00 PM
Waning Gibbous, 84% visible
Pressure 29.89 in
Visibility 10.0 miles
Clouds Clear
Dew Point 71 °F
Humidity 94%
Rainfall 0.00 in
Snow Depth Not available.
UV 0.0 out of 12
Pollen 9.80 out of 12
Air Quality Not available.
Flu Activity Not available.
METAR KAXN 020253Z AUTO 11006KT 10SM CLR 23/21 A2990 RMK AO2 SLP120 T02280206 58002
Pressure 29.89 in
Visibility 10.0 miles
Clouds Clear
Dew Point 71 °F
Humidity 94%
Rainfall 0.00 in
Snow Depth Not available.
UV 0.0 out of 12
Pollen 9.80 out of 12
Air Quality Not available.
Flu Activity Not available.
METAR KAXN 020253Z AUTO 11006KT 10SM CLR 23/21 A2990 RMK AO2 SLP120 T02280206 58002

10-Day Weather Forecast

×

Almanac

Astronomy

Sep. 01, 2015 Rise Set
Actual Time
Civil Twilight
Nautical Twilight
Astronomical Twilight
Moon
Length of Visible Light
Length of Day
Tomorrow will be .
, % of the Moon is Illuminated

Today's Extremes

State Highs State Lows

Community

WunderPhotos

Upload Photos

1,851,680 photos uploaded!

WunderBlogs® & News

Nearby

Air Quality

  Air Quality AQ Index Pollutant
Not available.

Snow Depth

Station Depth Elevation

Earthquake Activity

City Distance Mag. Time & Date
Minimum magnitude displayed is 2.5.

Coastal Water Temperatures

Place Temperature

Stations

Nearby Weather Stations

Station Location Temp. Windchill Dew Point Humidity Wind Precip. Elev Updated Type